sensor_id;sensor_type;location;lat;lon;timestamp;temperature;humidity
24262;DHT22;12385;51.412;5.540;2024-02-15T00:01:00;12.60;99.90
24262;DHT22;12385;51.412;5.540;2024-02-15T00:03:27;12.60;99.90
24262;DHT22;12385;51.412;5.540;2024-02-15T00:05:53;12.50;99.90
24262;DHT22;12385;51.412;5.540;2024-02-15T00:08:20;12.50;99.90
24262;DHT22;12385;51.412;5.540;2024-02-15T00:10:46;12.50;99.90
24262;DHT22;12385;51.412;5.540;2024-02-15T00:13:12;12.50;99.90
24262;DHT22;12385;51.412;5.540;2024-02-15T00:15:39;12.50;99.90
24262;DHT22;12385;51.412;5.540;2024-02-15T00:18:04;12.50;99.90
24262;DHT22;12385;51.412;5.540;2024-02-15T00:20:30;12.50;99.90
24262;DHT22;12385;51.412;5.540;2024-02-15T00:22:56;12.50;99.90
24262;DHT22;12385;51.412;5.540;2024-02-15T00:25:22;12.40;99.90
24262;DHT22;12385;51.412;5.540;2024-02-15T00:27:47;12.50;99.90
24262;DHT22;12385;51.412;5.540;2024-02-15T00:30:15;12.40;99.90
24262;DHT22;12385;51.412;5.540;2024-02-15T00:32:42;12.40;99.90
24262;DHT22;12385;51.412;5.540;2024-02-15T00:35:08;12.40;99.90
24262;DHT22;12385;51.412;5.540;2024-02-15T00:37:35;12.40;99.90
24262;DHT22;12385;51.412;5.540;2024-02-15T00:40:01;12.40;99.90
24262;DHT22;12385;51.412;5.540;2024-02-15T00:42:29;12.40;99.90
24262;DHT22;12385;51.412;5.540;2024-02-15T00:44:57;12.40;99.90
24262;DHT22;12385;51.412;5.540;2024-02-15T00:47:23;12.40;99.90
24262;DHT22;12385;51.412;5.540;2024-02-15T00:49:49;12.40;99.90
24262;DHT22;12385;51.412;5.540;2024-02-15T00:52:16;12.40;99.90
24262;DHT22;12385;51.412;5.540;2024-02-15T00:54:45;12.40;99.90
24262;DHT22;12385;51.412;5.540;2024-02-15T00:57:11;12.40;99.90
24262;DHT22;12385;51.412;5.540;2024-02-15T00:59:37;12.40;99.90
24262;DHT22;12385;51.412;5.540;2024-02-15T01:02:04;12.40;99.90
24262;DHT22;12385;51.412;5.540;2024-02-15T01:04:31;12.40;99.90
24262;DHT22;12385;51.412;5.540;2024-02-15T01:06:56;12.40;99.90
24262;DHT22;12385;51.412;5.540;2024-02-15T01:09:22;12.40;99.90
24262;DHT22;12385;51.412;5.540;2024-02-15T01:11:50;12.40;99.90
24262;DHT22;12385;51.412;5.540;2024-02-15T01:14:16;12.40;99.90
24262;DHT22;12385;51.412;5.540;2024-02-15T01:16:42;12.40;99.90
24262;DHT22;12385;51.412;5.540;2024-02-15T01:19:09;12.50;99.90
24262;DHT22;12385;51.412;5.540;2024-02-15T01:21:35;12.40;99.90
24262;DHT22;12385;51.412;5.540;2024-02-15T01:24:00;12.40;99.90
24262;DHT22;12385;51.412;5.540;2024-02-15T01:26:26;12.40;99.90
24262;DHT22;12385;51.412;5.540;2024-02-15T01:28:52;12.40;99.90
24262;DHT22;12385;51.412;5.540;2024-02-15T01:31:20;12.40;99.90
24262;DHT22;12385;51.412;5.540;2024-02-15T01:33:46;12.40;99.90
24262;DHT22;12385;51.412;5.540;2024-02-15T01:36:15;12.40;99.90
24262;DHT22;12385;51.412;5.540;2024-02-15T01:38:41;12.40;99.90
24262;DHT22;12385;51.412;5.540;2024-02-15T01:41:07;12.30;99.90
24262;DHT22;12385;51.412;5.540;2024-02-15T01:43:34;12.30;99.90
24262;DHT22;12385;51.412;5.540;2024-02-15T01:46:00;12.30;99.90
24262;DHT22;12385;51.412;5.540;2024-02-15T01:48:32;12.40;99.90
24262;DHT22;12385;51.412;5.540;2024-02-15T01:50:58;12.40;99.90
24262;DHT22;12385;51.412;5.540;2024-02-15T01:53:25;12.40;99.90
24262;DHT22;12385;51.412;5.540;2024-02-15T01:55:53;12.40;99.90
24262;DHT22;12385;51.412;5.540;2024-02-15T01:58:20;12.40;99.90
24262;DHT22;12385;51.412;5.540;2024-02-15T02:00:50;12.40;99.90
24262;DHT22;12385;51.412;5.540;2024-02-15T02:03:16;12.40;99.90
24262;DHT22;12385;51.412;5.540;2024-02-15T02:05:42;12.40;99.90
24262;DHT22;12385;51.412;5.540;2024-02-15T02:08:08;12.40;99.90
24262;DHT22;12385;51.412;5.540;2024-02-15T02:10:40;12.40;99.90
24262;DHT22;12385;51.412;5.540;2024-02-15T02:13:06;12.40;99.90
24262;DHT22;12385;51.412;5.540;2024-02-15T02:15:32;12.40;99.90
24262;DHT22;12385;51.412;5.540;2024-02-15T02:17:59;12.40;99.90
24262;DHT22;12385;51.412;5.540;2024-02-15T02:20:26;12.40;99.90
24262;DHT22;12385;51.412;5.540;2024-02-15T02:22:53;12.40;99.90
24262;DHT22;12385;51.412;5.540;2024-02-15T02:25:24;12.30;99.90
24262;DHT22;12385;51.412;5.540;2024-02-15T02:27:53;12.30;99.90
24262;DHT22;12385;51.412;5.540;2024-02-15T02:30:20;12.30;99.90
24262;DHT22;12385;51.412;5.540;2024-02-15T02:32:49;12.20;99.90
24262;DHT22;12385;51.412;5.540;2024-02-15T02:35:15;12.20;99.90
24262;DHT22;12385;51.412;5.540;2024-02-15T02:37:42;12.20;99.90
24262;DHT22;12385;51.412;5.540;2024-02-15T02:40:08;12.20;99.90
24262;DHT22;12385;51.412;5.540;2024-02-15T02:42:53;12.20;99.90
24262;DHT22;12385;51.412;5.540;2024-02-15T02:45:22;12.20;99.90
24262;DHT22;12385;51.412;5.540;2024-02-15T02:47:51;12.20;99.90
24262;DHT22;12385;51.412;5.540;2024-02-15T02:50:17;12.20;99.90
24262;DHT22;12385;51.412;5.540;2024-02-15T02:52:45;12.20;99.90
24262;DHT22;12385;51.412;5.540;2024-02-15T02:55:11;12.20;99.90
24262;DHT22;12385;51.412;5.540;2024-02-15T02:57:39;12.20;99.90
24262;DHT22;12385;51.412;5.540;2024-02-15T03:00:07;12.20;99.90
24262;DHT22;12385;51.412;5.540;2024-02-15T03:02:37;12.20;99.90
24262;DHT22;12385;51.412;5.540;2024-02-15T03:05:04;12.20;99.90
24262;DHT22;12385;51.412;5.540;2024-02-15T03:07:33;12.20;99.90
24262;DHT22;12385;51.412;5.540;2024-02-15T03:10:03;12.20;99.90
24262;DHT22;12385;51.412;5.540;2024-02-15T03:12:38;12.20;99.90
24262;DHT22;12385;51.412;5.540;2024-02-15T03:15:05;12.20;99.90
24262;DHT22;12385;51.412;5.540;2024-02-15T03:17:38;12.20;99.90
24262;DHT22;12385;51.412;5.540;2024-02-15T03:20:06;12.20;99.90
24262;DHT22;12385;51.412;5.540;2024-02-15T03:22:37;12.20;99.90
24262;DHT22;12385;51.412;5.540;2024-02-15T03:25:06;12.20;99.90
24262;DHT22;12385;51.412;5.540;2024-02-15T03:27:36;12.20;99.90
24262;DHT22;12385;51.412;5.540;2024-02-15T03:30:03;12.20;99.90
24262;DHT22;12385;51.412;5.540;2024-02-15T03:32:30;12.30;99.90
24262;DHT22;12385;51.412;5.540;2024-02-15T03:34:55;12.30;99.90
24262;DHT22;12385;51.412;5.540;2024-02-15T03:37:21;12.30;99.90
24262;DHT22;12385;51.412;5.540;2024-02-15T03:39:46;12.30;99.90
24262;DHT22;12385;51.412;5.540;2024-02-15T03:42:12;12.30;99.90
24262;DHT22;12385;51.412;5.540;2024-02-15T03:44:38;12.30;99.90
24262;DHT22;12385;51.412;5.540;2024-02-15T03:47:04;12.30;99.90
24262;DHT22;12385;51.412;5.540;2024-02-15T03:49:31;12.30;99.90
24262;DHT22;12385;51.412;5.540;2024-02-15T03:51:59;12.30;99.90
24262;DHT22;12385;51.412;5.540;2024-02-15T03:54:28;12.30;99.90
24262;DHT22;12385;51.412;5.540;2024-02-15T03:56:56;12.30;99.90
24262;DHT22;12385;51.412;5.540;2024-02-15T03:59:23;12.30;99.90
24262;DHT22;12385;51.412;5.540;2024-02-15T04:01:52;12.30;99.90
24262;DHT22;12385;51.412;5.540;2024-02-15T04:04:20;12.30;99.90
24262;DHT22;12385;51.412;5.540;2024-02-15T04:06:50;12.30;99.90
24262;DHT22;12385;51.412;5.540;2024-02-15T04:09:19;12.40;99.90
24262;DHT22;12385;51.412;5.540;2024-02-15T04:11:50;12.30;99.90
24262;DHT22;12385;51.412;5.540;2024-02-15T04:14:20;12.30;99.90
24262;DHT22;12385;51.412;5.540;2024-02-15T04:16:45;12.30;99.90
24262;DHT22;12385;51.412;5.540;2024-02-15T04:19:12;12.30;99.90
24262;DHT22;12385;51.412;5.540;2024-02-15T04:21:38;12.30;99.90
24262;DHT22;12385;51.412;5.540;2024-02-15T04:24:06;12.40;99.90
24262;DHT22;12385;51.412;5.540;2024-02-15T04:26:32;12.30;99.90
24262;DHT22;12385;51.412;5.540;2024-02-15T04:28:59;12.40;99.90
24262;DHT22;12385;51.412;5.540;2024-02-15T04:31:24;12.40;99.90
24262;DHT22;12385;51.412;5.540;2024-02-15T04:33:54;12.40;99.90
24262;DHT22;12385;51.412;5.540;2024-02-15T04:36:20;12.40;99.90
24262;DHT22;12385;51.412;5.540;2024-02-15T04:38:51;12.40;99.90
24262;DHT22;12385;51.412;5.540;2024-02-15T04:41:17;12.40;99.90
24262;DHT22;12385;51.412;5.540;2024-02-15T04:43:50;12.30;99.90
24262;DHT22;12385;51.412;5.540;2024-02-15T04:46:17;12.30;99.90
24262;DHT22;12385;51.412;5.540;2024-02-15T04:48:42;12.30;99.90
24262;DHT22;12385;51.412;5.540;2024-02-15T04:51:09;12.30;99.90
24262;DHT22;12385;51.412;5.540;2024-02-15T04:53:36;12.30;99.90
24262;DHT22;12385;51.412;5.540;2024-02-15T04:56:04;12.30;99.90
24262;DHT22;12385;51.412;5.540;2024-02-15T04:58:35;12.30;99.90
24262;DHT22;12385;51.412;5.540;2024-02-15T05:01:02;12.30;99.90
24262;DHT22;12385;51.412;5.540;2024-02-15T05:03:31;12.30;99.90
24262;DHT22;12385;51.412;5.540;2024-02-15T05:06:01;12.30;99.90
24262;DHT22;12385;51.412;5.540;2024-02-15T05:08:29;12.30;99.90
24262;DHT22;12385;51.412;5.540;2024-02-15T05:10:57;12.30;99.90
24262;DHT22;12385;51.412;5.540;2024-02-15T05:13:26;12.30;99.90
24262;DHT22;12385;51.412;5.540;2024-02-15T05:15:52;12.30;99.90
24262;DHT22;12385;51.412;5.540;2024-02-15T05:18:18;12.30;99.90
24262;DHT22;12385;51.412;5.540;2024-02-15T05:20:45;12.30;99.90
24262;DHT22;12385;51.412;5.540;2024-02-15T05:23:11;12.30;99.90
24262;DHT22;12385;51.412;5.540;2024-02-15T05:25:37;12.30;99.90
24262;DHT22;12385;51.412;5.540;2024-02-15T05:28:03;12.30;99.90
24262;DHT22;12385;51.412;5.540;2024-02-15T05:30:31;12.30;99.90
24262;DHT22;12385;51.412;5.540;2024-02-15T05:32:58;12.30;99.90
24262;DHT22;12385;51.412;5.540;2024-02-15T05:35:24;12.30;99.90
24262;DHT22;12385;51.412;5.540;2024-02-15T05:37:50;12.30;99.90
24262;DHT22;12385;51.412;5.540;2024-02-15T05:40:20;12.30;99.90
24262;DHT22;12385;51.412;5.540;2024-02-15T05:42:46;12.30;99.90
24262;DHT22;12385;51.412;5.540;2024-02-15T05:45:29;12.30;99.90
24262;DHT22;12385;51.412;5.540;2024-02-15T05:47:58;12.30;99.90
24262;DHT22;12385;51.412;5.540;2024-02-15T05:50:24;12.30;99.90
24262;DHT22;12385;51.412;5.540;2024-02-15T05:52:53;12.30;99.90
24262;DHT22;12385;51.412;5.540;2024-02-15T05:55:20;12.30;99.90
24262;DHT22;12385;51.412;5.540;2024-02-15T05:57:46;12.30;99.90
24262;DHT22;12385;51.412;5.540;2024-02-15T06:00:12;12.30;99.90
24262;DHT22;12385;51.412;5.540;2024-02-15T06:02:40;12.30;99.90
24262;DHT22;12385;51.412;5.540;2024-02-15T06:05:06;12.30;99.90
24262;DHT22;12385;51.412;5.540;2024-02-15T06:07:33;12.30;99.90
24262;DHT22;12385;51.412;5.540;2024-02-15T06:09:59;12.30;99.90
24262;DHT22;12385;51.412;5.540;2024-02-15T06:12:29;12.30;99.90
24262;DHT22;12385;51.412;5.540;2024-02-15T06:14:55;12.30;99.90
24262;DHT22;12385;51.412;5.540;2024-02-15T06:17:20;12.20;99.90
24262;DHT22;12385;51.412;5.540;2024-02-15T06:19:46;12.20;99.90
24262;DHT22;12385;51.412;5.540;2024-02-15T06:22:12;12.20;99.90
24262;DHT22;12385;51.412;5.540;2024-02-15T06:24:38;12.20;99.90
24262;DHT22;12385;51.412;5.540;2024-02-15T06:27:05;12.20;99.90
24262;DHT22;12385;51.412;5.540;2024-02-15T06:29:31;12.20;99.90
24262;DHT22;12385;51.412;5.540;2024-02-15T06:32:16;12.20;99.90
24262;DHT22;12385;51.412;5.540;2024-02-15T06:35:00;12.20;99.90
24262;DHT22;12385;51.412;5.540;2024-02-15T06:37:44;12.20;99.90
24262;DHT22;12385;51.412;5.540;2024-02-15T06:40:28;12.20;99.90
24262;DHT22;12385;51.412;5.540;2024-02-15T06:42:54;12.20;99.90
24262;DHT22;12385;51.412;5.540;2024-02-15T06:45:20;12.10;99.90
24262;DHT22;12385;51.412;5.540;2024-02-15T06:47:47;12.20;99.90
24262;DHT22;12385;51.412;5.540;2024-02-15T06:50:13;12.10;99.90
24262;DHT22;12385;51.412;5.540;2024-02-15T06:52:39;12.20;99.90
24262;DHT22;12385;51.412;5.540;2024-02-15T06:55:09;12.10;99.90
24262;DHT22;12385;51.412;5.540;2024-02-15T06:57:38;12.20;99.90
24262;DHT22;12385;51.412;5.540;2024-02-15T07:00:09;12.20;99.90
24262;DHT22;12385;51.412;5.540;2024-02-15T07:02:39;12.20;99.90
24262;DHT22;12385;51.412;5.540;2024-02-15T07:05:06;12.20;99.90
24262;DHT22;12385;51.412;5.540;2024-02-15T07:07:33;12.20;99.90
24262;DHT22;12385;51.412;5.540;2024-02-15T07:10:00;12.20;99.90
24262;DHT22;12385;51.412;5.540;2024-02-15T07:12:28;12.20;99.90
24262;DHT22;12385;51.412;5.540;2024-02-15T07:14:54;12.20;99.90
24262;DHT22;12385;51.412;5.540;2024-02-15T07:17:20;12.20;99.90
24262;DHT22;12385;51.412;5.540;2024-02-15T07:19:46;12.20;99.90
24262;DHT22;12385;51.412;5.540;2024-02-15T07:22:20;12.20;99.90
24262;DHT22;12385;51.412;5.540;2024-02-15T07:24:47;12.30;99.90
24262;DHT22;12385;51.412;5.540;2024-02-15T07:27:15;12.30;99.90
24262;DHT22;12385;51.412;5.540;2024-02-15T07:29:42;12.30;99.90
24262;DHT22;12385;51.412;5.540;2024-02-15T07:32:07;12.30;99.90
24262;DHT22;12385;51.412;5.540;2024-02-15T07:34:33;12.30;99.90
24262;DHT22;12385;51.412;5.540;2024-02-15T07:37:02;12.30;99.90
24262;DHT22;12385;51.412;5.540;2024-02-15T07:39:28;12.30;99.90
24262;DHT22;12385;51.412;5.540;2024-02-15T07:41:54;12.30;99.90
24262;DHT22;12385;51.412;5.540;2024-02-15T07:44:21;12.30;99.90
24262;DHT22;12385;51.412;5.540;2024-02-15T07:46:51;12.30;99.90
24262;DHT22;12385;51.412;5.540;2024-02-15T07:49:16;12.30;99.90
24262;DHT22;12385;51.412;5.540;2024-02-15T07:51:43;12.30;99.90
24262;DHT22;12385;51.412;5.540;2024-02-15T07:54:09;12.30;99.90
24262;DHT22;12385;51.412;5.540;2024-02-15T07:56:37;12.30;99.90
24262;DHT22;12385;51.412;5.540;2024-02-15T07:59:04;12.30;99.90
24262;DHT22;12385;51.412;5.540;2024-02-15T08:01:29;12.30;99.90
24262;DHT22;12385;51.412;5.540;2024-02-15T08:03:56;12.30;99.90
24262;DHT22;12385;51.412;5.540;2024-02-15T08:06:22;12.30;99.90
24262;DHT22;12385;51.412;5.540;2024-02-15T08:08:53;12.30;99.90
24262;DHT22;12385;51.412;5.540;2024-02-15T08:11:20;12.40;99.90
24262;DHT22;12385;51.412;5.540;2024-02-15T08:13:47;12.40;99.90
24262;DHT22;12385;51.412;5.540;2024-02-15T08:16:21;12.40;99.90
24262;DHT22;12385;51.412;5.540;2024-02-15T08:18:51;12.40;99.90
24262;DHT22;12385;51.412;5.540;2024-02-15T08:21:29;12.40;99.90
24262;DHT22;12385;51.412;5.540;2024-02-15T08:24:00;12.40;99.90
24262;DHT22;12385;51.412;5.540;2024-02-15T08:26:26;12.50;99.90
24262;DHT22;12385;51.412;5.540;2024-02-15T08:28:52;12.40;99.90
24262;DHT22;12385;51.412;5.540;2024-02-15T08:31:20;12.40;99.90
24262;DHT22;12385;51.412;5.540;2024-02-15T08:33:46;12.40;99.90
24262;DHT22;12385;51.412;5.540;2024-02-15T08:36:12;12.50;99.90
24262;DHT22;12385;51.412;5.540;2024-02-15T08:38:41;12.50;99.90
24262;DHT22;12385;51.412;5.540;2024-02-15T08:41:06;12.40;99.90
24262;DHT22;12385;51.412;5.540;2024-02-15T08:43:34;12.40;99.90
24262;DHT22;12385;51.412;5.540;2024-02-15T08:46:00;12.50;99.90
24262;DHT22;12385;51.412;5.540;2024-02-15T08:48:26;12.50;99.90
24262;DHT22;12385;51.412;5.540;2024-02-15T08:50:52;12.50;99.90
24262;DHT22;12385;51.412;5.540;2024-02-15T08:53:20;12.50;99.90
24262;DHT22;12385;51.412;5.540;2024-02-15T08:55:47;12.60;99.90
24262;DHT22;12385;51.412;5.540;2024-02-15T08:58:16;12.60;99.90
24262;DHT22;12385;51.412;5.540;2024-02-15T09:00:43;12.60;99.90
24262;DHT22;12385;51.412;5.540;2024-02-15T09:03:13;12.60;99.90
24262;DHT22;12385;51.412;5.540;2024-02-15T09:05:42;12.60;99.90
24262;DHT22;12385;51.412;5.540;2024-02-15T09:08:08;12.60;99.90
24262;DHT22;12385;51.412;5.540;2024-02-15T09:10:34;12.60;99.90
24262;DHT22;12385;51.412;5.540;2024-02-15T09:13:01;12.60;99.90
24262;DHT22;12385;51.412;5.540;2024-02-15T09:15:27;12.60;99.90
24262;DHT22;12385;51.412;5.540;2024-02-15T09:17:56;12.60;99.90
24262;DHT22;12385;51.412;5.540;2024-02-15T09:20:23;12.60;99.90
24262;DHT22;12385;51.412;5.540;2024-02-15T09:22:54;12.60;99.90
24262;DHT22;12385;51.412;5.540;2024-02-15T09:25:22;12.60;99.90
24262;DHT22;12385;51.412;5.540;2024-02-15T09:27:51;12.60;99.90
24262;DHT22;12385;51.412;5.540;2024-02-15T09:30:20;12.60;99.90
24262;DHT22;12385;51.412;5.540;2024-02-15T09:32:51;12.70;99.90
24262;DHT22;12385;51.412;5.540;2024-02-15T09:35:16;12.70;99.90
24262;DHT22;12385;51.412;5.540;2024-02-15T09:37:46;12.80;99.90
24262;DHT22;12385;51.412;5.540;2024-02-15T09:40:16;12.80;99.90
24262;DHT22;12385;51.412;5.540;2024-02-15T09:42:44;12.80;99.90
24262;DHT22;12385;51.412;5.540;2024-02-15T09:45:12;12.80;99.90
24262;DHT22;12385;51.412;5.540;2024-02-15T09:47:42;12.90;99.90
24262;DHT22;12385;51.412;5.540;2024-02-15T09:50:09;12.90;99.90
24262;DHT22;12385;51.412;5.540;2024-02-15T09:52:49;12.90;99.90
24262;DHT22;12385;51.412;5.540;2024-02-15T09:55:17;13.00;99.90
24262;DHT22;12385;51.412;5.540;2024-02-15T09:57:44;13.00;99.90
24262;DHT22;12385;51.412;5.540;2024-02-15T10:00:10;13.10;99.90
24262;DHT22;12385;51.412;5.540;2024-02-15T10:02:47;13.10;99.90
24262;DHT22;12385;51.412;5.540;2024-02-15T10:05:13;13.10;99.90
24262;DHT22;12385;51.412;5.540;2024-02-15T10:07:44;13.20;99.90
24262;DHT22;12385;51.412;5.540;2024-02-15T10:10:17;13.20;99.90
24262;DHT22;12385;51.412;5.540;2024-02-15T10:12:54;13.20;99.90
24262;DHT22;12385;51.412;5.540;2024-02-15T10:15:34;13.20;99.90
24262;DHT22;12385;51.412;5.540;2024-02-15T10:20:29;13.30;99.90
24262;DHT22;12385;51.412;5.540;2024-02-15T10:25:26;13.30;99.90
24262;DHT22;12385;51.412;5.540;2024-02-15T10:28:08;13.40;99.90
24262;DHT22;12385;51.412;5.540;2024-02-15T10:30:43;13.50;99.90
24262;DHT22;12385;51.412;5.540;2024-02-15T10:35:46;13.50;99.90
24262;DHT22;12385;51.412;5.540;2024-02-15T10:38:12;13.50;99.90
24262;DHT22;12385;51.412;5.540;2024-02-15T10:40:40;13.60;99.90
24262;DHT22;12385;51.412;5.540;2024-02-15T10:43:10;13.70;99.90
24262;DHT22;12385;51.412;5.540;2024-02-15T10:45:39;13.80;99.90
24262;DHT22;12385;51.412;5.540;2024-02-15T10:48:10;13.80;99.90
24262;DHT22;12385;51.412;5.540;2024-02-15T10:50:42;13.90;99.90
24262;DHT22;12385;51.412;5.540;2024-02-15T10:53:31;13.90;99.90
24262;DHT22;12385;51.412;5.540;2024-02-15T10:58:46;14.00;99.90
24262;DHT22;12385;51.412;5.540;2024-02-15T11:01:17;14.10;99.90
24262;DHT22;12385;51.412;5.540;2024-02-15T11:03:59;14.10;99.90
24262;DHT22;12385;51.412;5.540;2024-02-15T11:06:27;14.20;99.90
24262;DHT22;12385;51.412;5.540;2024-02-15T11:08:55;14.20;99.90
24262;DHT22;12385;51.412;5.540;2024-02-15T11:11:23;14.20;99.90
24262;DHT22;12385;51.412;5.540;2024-02-15T11:16:50;14.30;99.90
24262;DHT22;12385;51.412;5.540;2024-02-15T11:22:01;14.40;99.90
24262;DHT22;12385;51.412;5.540;2024-02-15T11:24:34;14.50;99.90
24262;DHT22;12385;51.412;5.540;2024-02-15T11:27:05;14.50;99.90
24262;DHT22;12385;51.412;5.540;2024-02-15T11:35:10;14.70;99.90
24262;DHT22;12385;51.412;5.540;2024-02-15T11:40:23;14.90;99.90
24262;DHT22;12385;51.412;5.540;2024-02-15T11:42:59;15.00;99.90
24262;DHT22;12385;51.412;5.540;2024-02-15T11:45:28;15.10;99.90
24262;DHT22;12385;51.412;5.540;2024-02-15T11:48:08;15.20;99.90
24262;DHT22;12385;51.412;5.540;2024-02-15T11:50:37;15.20;99.90
24262;DHT22;12385;51.412;5.540;2024-02-15T11:53:07;15.20;99.90
24262;DHT22;12385;51.412;5.540;2024-02-15T11:55:40;15.30;99.90
24262;DHT22;12385;51.412;5.540;2024-02-15T11:58:07;15.30;99.90
24262;DHT22;12385;51.412;5.540;2024-02-15T12:00:33;15.30;99.90
24262;DHT22;12385;51.412;5.540;2024-02-15T12:03:20;15.40;99.90
24262;DHT22;12385;51.412;5.540;2024-02-15T12:06:04;15.40;99.90
24262;DHT22;12385;51.412;5.540;2024-02-15T12:08:52;15.50;99.90
24262;DHT22;12385;51.412;5.540;2024-02-15T12:11:38;15.60;99.90
24262;DHT22;12385;51.412;5.540;2024-02-15T12:14:24;15.70;99.90
24262;DHT22;12385;51.412;5.540;2024-02-15T12:17:10;15.70;99.90
24262;DHT22;12385;51.412;5.540;2024-02-15T12:19:56;15.80;99.90
24262;DHT22;12385;51.412;5.540;2024-02-15T12:22:24;15.90;99.90
24262;DHT22;12385;51.412;5.540;2024-02-15T12:24:57;15.90;99.90
24262;DHT22;12385;51.412;5.540;2024-02-15T12:27:23;15.90;99.90
24262;DHT22;12385;51.412;5.540;2024-02-15T12:29:56;15.90;99.90
24262;DHT22;12385;51.412;5.540;2024-02-15T12:32:25;16.00;99.90
24262;DHT22;12385;51.412;5.540;2024-02-15T12:35:09;16.00;99.90
24262;DHT22;12385;51.412;5.540;2024-02-15T12:37:35;16.10;99.90
24262;DHT22;12385;51.412;5.540;2024-02-15T12:40:16;16.10;99.90
24262;DHT22;12385;51.412;5.540;2024-02-15T12:42:45;16.10;99.90
24262;DHT22;12385;51.412;5.540;2024-02-15T12:45:16;16.20;99.90
24262;DHT22;12385;51.412;5.540;2024-02-15T12:47:52;16.20;99.90
24262;DHT22;12385;51.412;5.540;2024-02-15T12:50:28;16.30;99.90
24262;DHT22;12385;51.412;5.540;2024-02-15T12:52:54;16.30;99.90
24262;DHT22;12385;51.412;5.540;2024-02-15T12:55:31;16.40;99.90
24262;DHT22;12385;51.412;5.540;2024-02-15T12:58:04;16.40;99.90
24262;DHT22;12385;51.412;5.540;2024-02-15T13:00:31;16.50;99.90
24262;DHT22;12385;51.412;5.540;2024-02-15T13:02:59;16.40;99.90
24262;DHT22;12385;51.412;5.540;2024-02-15T13:05:29;16.40;99.90
24262;DHT22;12385;51.412;5.540;2024-02-15T13:07:55;16.50;99.90
24262;DHT22;12385;51.412;5.540;2024-02-15T13:10:21;16.50;99.90
24262;DHT22;12385;51.412;5.540;2024-02-15T13:12:50;16.50;99.90
24262;DHT22;12385;51.412;5.540;2024-02-15T13:15:16;16.50;99.90
24262;DHT22;12385;51.412;5.540;2024-02-15T13:17:49;16.50;99.90
24262;DHT22;12385;51.412;5.540;2024-02-15T13:20:20;16.50;99.90
24262;DHT22;12385;51.412;5.540;2024-02-15T13:22:55;16.50;99.90
24262;DHT22;12385;51.412;5.540;2024-02-15T13:25:25;16.60;99.90
24262;DHT22;12385;51.412;5.540;2024-02-15T13:27:51;16.60;99.90
24262;DHT22;12385;51.412;5.540;2024-02-15T13:30:19;16.70;99.90
24262;DHT22;12385;51.412;5.540;2024-02-15T13:32:49;16.70;99.90
24262;DHT22;12385;51.412;5.540;2024-02-15T13:35:19;16.80;99.90
24262;DHT22;12385;51.412;5.540;2024-02-15T13:37:50;16.90;99.90
24262;DHT22;12385;51.412;5.540;2024-02-15T13:40:27;17.00;99.90
24262;DHT22;12385;51.412;5.540;2024-02-15T13:42:57;17.00;99.90
24262;DHT22;12385;51.412;5.540;2024-02-15T13:45:39;17.10;99.90
24262;DHT22;12385;51.412;5.540;2024-02-15T13:48:07;17.20;99.90
24262;DHT22;12385;51.412;5.540;2024-02-15T13:50:33;17.30;99.90
24262;DHT22;12385;51.412;5.540;2024-02-15T13:52:59;17.30;99.90
24262;DHT22;12385;51.412;5.540;2024-02-15T13:55:25;17.30;99.90
24262;DHT22;12385;51.412;5.540;2024-02-15T13:57:52;17.20;99.90
24262;DHT22;12385;51.412;5.540;2024-02-15T14:00:20;17.20;99.90
24262;DHT22;12385;51.412;5.540;2024-02-15T14:02:56;17.10;99.90
24262;DHT22;12385;51.412;5.540;2024-02-15T14:05:23;17.00;99.90
24262;DHT22;12385;51.412;5.540;2024-02-15T14:07:56;17.00;99.90
24262;DHT22;12385;51.412;5.540;2024-02-15T14:10:23;16.90;99.90
24262;DHT22;12385;51.412;5.540;2024-02-15T14:12:50;16.90;99.90
24262;DHT22;12385;51.412;5.540;2024-02-15T14:15:19;16.90;99.90
24262;DHT22;12385;51.412;5.540;2024-02-15T14:17:45;16.90;99.90
24262;DHT22;12385;51.412;5.540;2024-02-15T14:20:12;16.90;99.90
24262;DHT22;12385;51.412;5.540;2024-02-15T14:22:44;16.90;99.90
24262;DHT22;12385;51.412;5.540;2024-02-15T14:25:10;16.90;99.90
24262;DHT22;12385;51.412;5.540;2024-02-15T14:27:40;17.00;99.90
24262;DHT22;12385;51.412;5.540;2024-02-15T14:30:06;17.00;99.90
24262;DHT22;12385;51.412;5.540;2024-02-15T14:32:51;17.00;99.90
24262;DHT22;12385;51.412;5.540;2024-02-15T14:35:33;17.00;99.90
24262;DHT22;12385;51.412;5.540;2024-02-15T14:38:05;17.00;99.90
24262;DHT22;12385;51.412;5.540;2024-02-15T14:40:36;17.00;99.90
24262;DHT22;12385;51.412;5.540;2024-02-15T14:43:03;17.00;99.90
24262;DHT22;12385;51.412;5.540;2024-02-15T14:45:35;17.00;99.90
24262;DHT22;12385;51.412;5.540;2024-02-15T14:48:04;17.00;99.90
24262;DHT22;12385;51.412;5.540;2024-02-15T14:50:30;17.00;99.90
24262;DHT22;12385;51.412;5.540;2024-02-15T14:52:56;16.90;99.90
24262;DHT22;12385;51.412;5.540;2024-02-15T14:55:21;16.90;99.90
24262;DHT22;12385;51.412;5.540;2024-02-15T14:57:49;16.90;99.90
24262;DHT22;12385;51.412;5.540;2024-02-15T15:00:15;16.90;99.90
24262;DHT22;12385;51.412;5.540;2024-02-15T15:02:44;16.80;99.90
24262;DHT22;12385;51.412;5.540;2024-02-15T15:05:12;16.80;99.90
24262;DHT22;12385;51.412;5.540;2024-02-15T15:07:56;16.80;99.90
24262;DHT22;12385;51.412;5.540;2024-02-15T15:10:41;16.80;99.90
24262;DHT22;12385;51.412;5.540;2024-02-15T15:13:25;16.80;99.90
24262;DHT22;12385;51.412;5.540;2024-02-15T15:15:51;16.80;99.90
24262;DHT22;12385;51.412;5.540;2024-02-15T15:18:16;16.90;99.90
24262;DHT22;12385;51.412;5.540;2024-02-15T15:20:44;16.90;99.90
24262;DHT22;12385;51.412;5.540;2024-02-15T15:23:10;16.90;99.90
24262;DHT22;12385;51.412;5.540;2024-02-15T15:25:44;16.90;99.90
24262;DHT22;12385;51.412;5.540;2024-02-15T15:28:11;17.20;99.90
24262;DHT22;12385;51.412;5.540;2024-02-15T15:30:39;17.60;99.90
24262;DHT22;12385;51.412;5.540;2024-02-15T15:33:05;18.00;99.90
24262;DHT22;12385;51.412;5.540;2024-02-15T15:35:34;18.40;99.90
24262;DHT22;12385;51.412;5.540;2024-02-15T15:38:01;18.60;99.90
24262;DHT22;12385;51.412;5.540;2024-02-15T15:40:27;18.70;99.90
24262;DHT22;12385;51.412;5.540;2024-02-15T15:42:53;18.70;99.90
24262;DHT22;12385;51.412;5.540;2024-02-15T15:45:20;18.60;99.90
24262;DHT22;12385;51.412;5.540;2024-02-15T15:47:47;18.50;99.90
24262;DHT22;12385;51.412;5.540;2024-02-15T15:50:12;18.40;99.90
24262;DHT22;12385;51.412;5.540;2024-02-15T15:52:38;18.20;99.90
24262;DHT22;12385;51.412;5.540;2024-02-15T15:55:07;18.00;99.90
24262;DHT22;12385;51.412;5.540;2024-02-15T15:57:39;17.90;99.90
24262;DHT22;12385;51.412;5.540;2024-02-15T16:00:09;17.70;99.90
24262;DHT22;12385;51.412;5.540;2024-02-15T16:02:45;17.60;99.90
24262;DHT22;12385;51.412;5.540;2024-02-15T16:05:20;17.40;99.90